sensor_id;sensor_type;location;lat;lon;timestamp;P1;durP1;ratioP1;P2;durP2;ratioP2
80852;SDS011;70270;43.434;28.338;2023-08-07T00:01:19;5.75;;;5.15;;
80852;SDS011;70270;43.434;28.338;2023-08-07T00:04:03;6.00;;;5.20;;
80852;SDS011;70270;43.434;28.338;2023-08-07T00:06:48;7.10;;;5.70;;
80852;SDS011;70270;43.434;28.338;2023-08-07T00:09:33;7.07;;;6.15;;
80852;SDS011;70270;43.434;28.338;2023-08-07T00:12:17;6.07;;;5.38;;
80852;SDS011;70270;43.434;28.338;2023-08-07T00:15:02;6.65;;;5.95;;
80852;SDS011;70270;43.434;28.338;2023-08-07T00:17:50;6.50;;;5.75;;
80852;SDS011;70270;43.434;28.338;2023-08-07T00:20:34;6.35;;;5.75;;
80852;SDS011;70270;43.434;28.338;2023-08-07T00:23:19;6.35;;;5.28;;
80852;SDS011;70270;43.434;28.338;2023-08-07T00:26:04;7.20;;;5.80;;
80852;SDS011;70270;43.434;28.338;2023-08-07T00:28:49;6.22;;;5.63;;
80852;SDS011;70270;43.434;28.338;2023-08-07T00:31:34;7.10;;;5.68;;
80852;SDS011;70270;43.434;28.338;2023-08-07T00:34:19;6.13;;;5.53;;
80852;SDS011;70270;43.434;28.338;2023-08-07T00:37:04;6.70;;;5.70;;
80852;SDS011;70270;43.434;28.338;2023-08-07T00:39:50;7.00;;;6.03;;
80852;SDS011;70270;43.434;28.338;2023-08-07T00:42:35;7.45;;;6.35;;
80852;SDS011;70270;43.434;28.338;2023-08-07T00:45:20;6.78;;;6.07;;
80852;SDS011;70270;43.434;28.338;2023-08-07T00:48:05;7.75;;;6.35;;
80852;SDS011;70270;43.434;28.338;2023-08-07T00:50:52;7.60;;;6.28;;
80852;SDS011;70270;43.434;28.338;2023-08-07T00:53:38;6.82;;;5.82;;
80852;SDS011;70270;43.434;28.338;2023-08-07T00:56:23;6.95;;;6.25;;
80852;SDS011;70270;43.434;28.338;2023-08-07T00:59:09;6.68;;;5.90;;
80852;SDS011;70270;43.434;28.338;2023-08-07T01:01:57;7.32;;;6.63;;
80852;SDS011;70270;43.434;28.338;2023-08-07T01:04:41;8.25;;;5.88;;
80852;SDS011;70270;43.434;28.338;2023-08-07T01:07:26;7.38;;;6.30;;
80852;SDS011;70270;43.434;28.338;2023-08-07T01:10:14;7.70;;;6.70;;
80852;SDS011;70270;43.434;28.338;2023-08-07T01:13:03;12.25;;;7.05;;
80852;SDS011;70270;43.434;28.338;2023-08-07T01:15:55;8.55;;;7.07;;
80852;SDS011;70270;43.434;28.338;2023-08-07T01:18:45;7.45;;;6.68;;
80852;SDS011;70270;43.434;28.338;2023-08-07T01:21:32;6.97;;;6.28;;
80852;SDS011;70270;43.434;28.338;2023-08-07T01:24:17;7.40;;;6.18;;
80852;SDS011;70270;43.434;28.338;2023-08-07T01:27:15;7.07;;;6.38;;
80852;SDS011;70270;43.434;28.338;2023-08-07T01:30:11;7.30;;;6.60;;
80852;SDS011;70270;43.434;28.338;2023-08-07T01:33:56;6.75;;;6.05;;
80852;SDS011;70270;43.434;28.338;2023-08-07T01:36:32;6.90;;;6.10;;
80852;SDS011;70270;43.434;28.338;2023-08-07T01:39:18;7.30;;;6.20;;
80852;SDS011;70270;43.434;28.338;2023-08-07T01:42:05;6.93;;;6.13;;
80852;SDS011;70270;43.434;28.338;2023-08-07T01:44:50;6.30;;;5.70;;
80852;SDS011;70270;43.434;28.338;2023-08-07T01:47:35;7.55;;;6.45;;
80852;SDS011;70270;43.434;28.338;2023-08-07T01:50:20;6.53;;;5.93;;
80852;SDS011;70270;43.434;28.338;2023-08-07T01:53:06;7.07;;;6.15;;
80852;SDS011;70270;43.434;28.338;2023-08-07T01:55:54;7.35;;;6.22;;
80852;SDS011;70270;43.434;28.338;2023-08-07T01:58:39;6.75;;;5.90;;
80852;SDS011;70270;43.434;28.338;2023-08-07T02:01:24;6.57;;;5.85;;
80852;SDS011;70270;43.434;28.338;2023-08-07T02:04:09;7.03;;;6.32;;
80852;SDS011;70270;43.434;28.338;2023-08-07T02:06:53;7.57;;;6.03;;
80852;SDS011;70270;43.434;28.338;2023-08-07T02:09:41;6.75;;;6.05;;
80852;SDS011;70270;43.434;28.338;2023-08-07T02:12:26;8.90;;;5.93;;
80852;SDS011;70270;43.434;28.338;2023-08-07T02:15:12;6.68;;;5.97;;
80852;SDS011;70270;43.434;28.338;2023-08-07T02:17:56;6.22;;;5.63;;
80852;SDS011;70270;43.434;28.338;2023-08-07T02:20:43;6.18;;;5.57;;
80852;SDS011;70270;43.434;28.338;2023-08-07T02:23:30;6.20;;;5.25;;
80852;SDS011;70270;43.434;28.338;2023-08-07T02:26:14;6.32;;;5.28;;
80852;SDS011;70270;43.434;28.338;2023-08-07T02:28:59;5.90;;;5.07;;
80852;SDS011;70270;43.434;28.338;2023-08-07T02:31:52;5.70;;;4.80;;
80852;SDS011;70270;43.434;28.338;2023-08-07T02:34:36;4.88;;;4.22;;
80852;SDS011;70270;43.434;28.338;2023-08-07T02:37:21;7.07;;;4.75;;
80852;SDS011;70270;43.434;28.338;2023-08-07T02:40:06;5.18;;;4.35;;
80852;SDS011;70270;43.434;28.338;2023-08-07T02:42:52;5.00;;;4.50;;
80852;SDS011;70270;43.434;28.338;2023-08-07T02:45:37;4.85;;;4.25;;
80852;SDS011;70270;43.434;28.338;2023-08-07T02:48:21;5.82;;;4.65;;
80852;SDS011;70270;43.434;28.338;2023-08-07T02:51:06;6.70;;;4.97;;
80852;SDS011;70270;43.434;28.338;2023-08-07T02:53:51;5.28;;;4.57;;
80852;SDS011;70270;43.434;28.338;2023-08-07T02:56:36;6.00;;;4.32;;
80852;SDS011;70270;43.434;28.338;2023-08-07T02:59:21;5.60;;;4.38;;
80852;SDS011;70270;43.434;28.338;2023-08-07T03:02:06;6.53;;;4.55;;
80852;SDS011;70270;43.434;28.338;2023-08-07T03:04:50;5.75;;;4.50;;
80852;SDS011;70270;43.434;28.338;2023-08-07T03:07:34;5.82;;;4.32;;
80852;SDS011;70270;43.434;28.338;2023-08-07T03:10:19;5.10;;;4.32;;
80852;SDS011;70270;43.434;28.338;2023-08-07T03:13:05;5.65;;;5.05;;
80852;SDS011;70270;43.434;28.338;2023-08-07T03:15:49;6.20;;;4.63;;
80852;SDS011;70270;43.434;28.338;2023-08-07T03:18:37;5.40;;;3.83;;
80852;SDS011;70270;43.434;28.338;2023-08-07T03:21:21;6.05;;;4.63;;
80852;SDS011;70270;43.434;28.338;2023-08-07T03:24:06;6.65;;;4.60;;
80852;SDS011;70270;43.434;28.338;2023-08-07T03:26:53;5.68;;;3.88;;
80852;SDS011;70270;43.434;28.338;2023-08-07T03:29:42;5.70;;;3.90;;
80852;SDS011;70270;43.434;28.338;2023-08-07T03:32:27;5.40;;;4.00;;
80852;SDS011;70270;43.434;28.338;2023-08-07T03:35:12;6.97;;;4.28;;
80852;SDS011;70270;43.434;28.338;2023-08-07T03:37:59;6.45;;;4.13;;
80852;SDS011;70270;43.434;28.338;2023-08-07T03:40:43;4.93;;;4.28;;
80852;SDS011;70270;43.434;28.338;2023-08-07T03:43:28;6.70;;;4.47;;
80852;SDS011;70270;43.434;28.338;2023-08-07T03:46:13;6.38;;;4.18;;
80852;SDS011;70270;43.434;28.338;2023-08-07T03:48:57;5.93;;;4.38;;
80852;SDS011;70270;43.434;28.338;2023-08-07T03:51:45;11.15;;;4.47;;
80852;SDS011;70270;43.434;28.338;2023-08-07T03:54:29;5.10;;;4.32;;
80852;SDS011;70270;43.434;28.338;2023-08-07T03:57:15;4.40;;;3.58;;
80852;SDS011;70270;43.434;28.338;2023-08-07T04:00:00;6.03;;;4.00;;
80852;SDS011;70270;43.434;28.338;2023-08-07T04:02:57;4.63;;;3.50;;
80852;SDS011;70270;43.434;28.338;2023-08-07T04:05:42;4.63;;;3.92;;
80852;SDS011;70270;43.434;28.338;2023-08-07T04:08:27;5.82;;;3.70;;
80852;SDS011;70270;43.434;28.338;2023-08-07T04:11:11;4.25;;;3.40;;
80852;SDS011;70270;43.434;28.338;2023-08-07T04:13:56;3.70;;;2.85;;
80852;SDS011;70270;43.434;28.338;2023-08-07T04:16:41;5.18;;;3.47;;
80852;SDS011;70270;43.434;28.338;2023-08-07T04:19:25;4.75;;;2.85;;
80852;SDS011;70270;43.434;28.338;2023-08-07T04:22:11;3.92;;;3.03;;
80852;SDS011;70270;43.434;28.338;2023-08-07T04:24:56;4.60;;;2.60;;
80852;SDS011;70270;43.434;28.338;2023-08-07T04:27:44;4.47;;;3.03;;
80852;SDS011;70270;43.434;28.338;2023-08-07T04:30:29;4.07;;;2.70;;
80852;SDS011;70270;43.434;28.338;2023-08-07T04:33:13;4.15;;;2.60;;
80852;SDS011;70270;43.434;28.338;2023-08-07T04:35:58;3.65;;;2.80;;
80852;SDS011;70270;43.434;28.338;2023-08-07T04:38:43;3.92;;;2.55;;
80852;SDS011;70270;43.434;28.338;2023-08-07T04:41:30;5.10;;;2.75;;
80852;SDS011;70270;43.434;28.338;2023-08-07T04:44:15;3.50;;;2.80;;
80852;SDS011;70270;43.434;28.338;2023-08-07T04:47:01;3.60;;;2.55;;
80852;SDS011;70270;43.434;28.338;2023-08-07T04:49:45;3.20;;;2.45;;
80852;SDS011;70270;43.434;28.338;2023-08-07T04:52:34;3.47;;;2.70;;
80852;SDS011;70270;43.434;28.338;2023-08-07T04:55:21;5.20;;;3.08;;
80852;SDS011;70270;43.434;28.338;2023-08-07T04:58:05;4.05;;;2.47;;
80852;SDS011;70270;43.434;28.338;2023-08-07T05:00:54;4.15;;;2.47;;
80852;SDS011;70270;43.434;28.338;2023-08-07T05:03:41;4.95;;;3.63;;
80852;SDS011;70270;43.434;28.338;2023-08-07T05:06:25;4.85;;;2.63;;
80852;SDS011;70270;43.434;28.338;2023-08-07T05:09:10;2.97;;;2.40;;
80852;SDS011;70270;43.434;28.338;2023-08-07T05:11:55;3.83;;;2.70;;
80852;SDS011;70270;43.434;28.338;2023-08-07T05:14:40;3.58;;;2.70;;
80852;SDS011;70270;43.434;28.338;2023-08-07T05:17:25;2.97;;;2.33;;
80852;SDS011;70270;43.434;28.338;2023-08-07T05:20:10;5.07;;;2.42;;
80852;SDS011;70270;43.434;28.338;2023-08-07T05:22:55;3.22;;;2.40;;
80852;SDS011;70270;43.434;28.338;2023-08-07T05:25:44;4.95;;;2.33;;
80852;SDS011;70270;43.434;28.338;2023-08-07T05:28:31;3.03;;;2.30;;
80852;SDS011;70270;43.434;28.338;2023-08-07T05:31:16;4.35;;;3.65;;
80852;SDS011;70270;43.434;28.338;2023-08-07T05:34:01;3.38;;;2.35;;
80852;SDS011;70270;43.434;28.338;2023-08-07T05:36:45;4.72;;;2.47;;
80852;SDS011;70270;43.434;28.338;2023-08-07T05:39:29;3.17;;;1.95;;
80852;SDS011;70270;43.434;28.338;2023-08-07T05:42:15;4.28;;;2.20;;
80852;SDS011;70270;43.434;28.338;2023-08-07T05:45:00;3.72;;;2.33;;
80852;SDS011;70270;43.434;28.338;2023-08-07T05:47:45;3.45;;;2.45;;
80852;SDS011;70270;43.434;28.338;2023-08-07T05:50:30;2.42;;;1.73;;
80852;SDS011;70270;43.434;28.338;2023-08-07T05:53:15;2.97;;;1.73;;
80852;SDS011;70270;43.434;28.338;2023-08-07T05:56:00;3.05;;;2.05;;
80852;SDS011;70270;43.434;28.338;2023-08-07T05:58:45;6.53;;;4.95;;
80852;SDS011;70270;43.434;28.338;2023-08-07T06:01:30;4.20;;;2.58;;
80852;SDS011;70270;43.434;28.338;2023-08-07T06:04:16;5.28;;;2.60;;
80852;SDS011;70270;43.434;28.338;2023-08-07T06:07:00;5.18;;;2.47;;
80852;SDS011;70270;43.434;28.338;2023-08-07T06:09:46;3.13;;;1.80;;
80852;SDS011;70270;43.434;28.338;2023-08-07T06:12:31;5.47;;;2.40;;
80852;SDS011;70270;43.434;28.338;2023-08-07T06:15:19;2.47;;;1.70;;
80852;SDS011;70270;43.434;28.338;2023-08-07T06:18:04;3.15;;;1.80;;
80852;SDS011;70270;43.434;28.338;2023-08-07T06:20:49;3.47;;;1.55;;
80852;SDS011;70270;43.434;28.338;2023-08-07T06:23:34;2.70;;;1.80;;
80852;SDS011;70270;43.434;28.338;2023-08-07T06:26:23;5.03;;;1.73;;
80852;SDS011;70270;43.434;28.338;2023-08-07T06:29:08;2.75;;;1.52;;
80852;SDS011;70270;43.434;28.338;2023-08-07T06:31:53;2.20;;;1.55;;
80852;SDS011;70270;43.434;28.338;2023-08-07T06:34:42;2.22;;;1.58;;
80852;SDS011;70270;43.434;28.338;2023-08-07T06:37:26;2.70;;;1.40;;
80852;SDS011;70270;43.434;28.338;2023-08-07T06:40:14;2.58;;;1.77;;
80852;SDS011;70270;43.434;28.338;2023-08-07T06:43:08;2.58;;;1.70;;
80852;SDS011;70270;43.434;28.338;2023-08-07T06:45:58;2.95;;;1.65;;
80852;SDS011;70270;43.434;28.338;2023-08-07T06:48:46;3.38;;;1.50;;
80852;SDS011;70270;43.434;28.338;2023-08-07T06:51:52;1.65;;;1.48;;
80852;SDS011;70270;43.434;28.338;2023-08-07T06:54:41;2.10;;;1.60;;
80852;SDS011;70270;43.434;28.338;2023-08-07T06:57:27;2.22;;;1.40;;
80852;SDS011;70270;43.434;28.338;2023-08-07T07:00:12;1.98;;;1.40;;
80852;SDS011;70270;43.434;28.338;2023-08-07T07:02:57;2.85;;;1.60;;
80852;SDS011;70270;43.434;28.338;2023-08-07T07:05:48;2.03;;;1.50;;
80852;SDS011;70270;43.434;28.338;2023-08-07T07:08:34;1.58;;;1.33;;
80852;SDS011;70270;43.434;28.338;2023-08-07T07:11:19;2.83;;;1.45;;
80852;SDS011;70270;43.434;28.338;2023-08-07T07:14:05;1.70;;;1.17;;
80852;SDS011;70270;43.434;28.338;2023-08-07T07:16:50;1.90;;;1.20;;
80852;SDS011;70270;43.434;28.338;2023-08-07T07:19:36;2.85;;;1.48;;
80852;SDS011;70270;43.434;28.338;2023-08-07T07:22:28;1.67;;;1.40;;
80852;SDS011;70270;43.434;28.338;2023-08-07T07:25:16;5.95;;;1.63;;
80852;SDS011;70270;43.434;28.338;2023-08-07T07:28:04;1.25;;;1.15;;
80852;SDS011;70270;43.434;28.338;2023-08-07T07:30:49;3.70;;;1.63;;
80852;SDS011;70270;43.434;28.338;2023-08-07T07:33:39;6.38;;;2.08;;
80852;SDS011;70270;43.434;28.338;2023-08-07T07:36:25;2.17;;;1.40;;
80852;SDS011;70270;43.434;28.338;2023-08-07T07:39:10;2.25;;;1.20;;
80852;SDS011;70270;43.434;28.338;2023-08-07T07:41:57;3.10;;;1.35;;
80852;SDS011;70270;43.434;28.338;2023-08-07T07:44:42;6.20;;;1.38;;
80852;SDS011;70270;43.434;28.338;2023-08-07T07:47:27;3.28;;;1.90;;
80852;SDS011;70270;43.434;28.338;2023-08-07T07:50:12;2.92;;;1.10;;
80852;SDS011;70270;43.434;28.338;2023-08-07T07:52:57;4.85;;;1.40;;
80852;SDS011;70270;43.434;28.338;2023-08-07T07:55:46;1.52;;;1.20;;
80852;SDS011;70270;43.434;28.338;2023-08-07T07:58:39;2.95;;;1.33;;
80852;SDS011;70270;43.434;28.338;2023-08-07T08:01:25;1.92;;;1.73;;
80852;SDS011;70270;43.434;28.338;2023-08-07T08:04:10;1.85;;;1.30;;
80852;SDS011;70270;43.434;28.338;2023-08-07T08:06:55;1.70;;;1.30;;
80852;SDS011;70270;43.434;28.338;2023-08-07T08:09:39;1.42;;;1.17;;
80852;SDS011;70270;43.434;28.338;2023-08-07T08:12:24;1.65;;;1.40;;
80852;SDS011;70270;43.434;28.338;2023-08-07T08:15:08;1.58;;;1.30;;
80852;SDS011;70270;43.434;28.338;2023-08-07T08:17:53;2.47;;;1.50;;
80852;SDS011;70270;43.434;28.338;2023-08-07T08:20:38;2.33;;;1.35;;
80852;SDS011;70270;43.434;28.338;2023-08-07T08:23:22;2.67;;;1.40;;
80852;SDS011;70270;43.434;28.338;2023-08-07T08:26:07;1.38;;;1.10;;
80852;SDS011;70270;43.434;28.338;2023-08-07T08:28:51;1.88;;;1.10;;
80852;SDS011;70270;43.434;28.338;2023-08-07T08:31:36;2.58;;;1.50;;
80852;SDS011;70270;43.434;28.338;2023-08-07T08:34:21;1.63;;;1.30;;
80852;SDS011;70270;43.434;28.338;2023-08-07T08:37:06;4.15;;;1.60;;
80852;SDS011;70270;43.434;28.338;2023-08-07T08:39:55;2.10;;;1.30;;
80852;SDS011;70270;43.434;28.338;2023-08-07T08:42:40;1.73;;;1.40;;
80852;SDS011;70270;43.434;28.338;2023-08-07T08:45:25;2.10;;;1.45;;
80852;SDS011;70270;43.434;28.338;2023-08-07T08:48:11;2.03;;;1.25;;
80852;SDS011;70270;43.434;28.338;2023-08-07T08:51:05;2.22;;;1.50;;
80852;SDS011;70270;43.434;28.338;2023-08-07T08:53:55;2.42;;;1.50;;
80852;SDS011;70270;43.434;28.338;2023-08-07T08:56:41;1.65;;;1.30;;
80852;SDS011;70270;43.434;28.338;2023-08-07T08:59:30;2.67;;;1.50;;
80852;SDS011;70270;43.434;28.338;2023-08-07T09:02:17;2.22;;;1.63;;
80852;SDS011;70270;43.434;28.338;2023-08-07T09:05:09;2.63;;;1.60;;
80852;SDS011;70270;43.434;28.338;2023-08-07T09:07:57;3.35;;;1.70;;
80852;SDS011;70270;43.434;28.338;2023-08-07T09:10:42;1.88;;;1.45;;
80852;SDS011;70270;43.434;28.338;2023-08-07T09:13:27;6.13;;;1.50;;
80852;SDS011;70270;43.434;28.338;2023-08-07T09:16:12;5.18;;;1.60;;
80852;SDS011;70270;43.434;28.338;2023-08-07T09:18:57;1.92;;;1.30;;
80852;SDS011;70270;43.434;28.338;2023-08-07T09:21:42;3.40;;;1.73;;
80852;SDS011;70270;43.434;28.338;2023-08-07T09:24:26;1.45;;;1.25;;
80852;SDS011;70270;43.434;28.338;2023-08-07T09:27:14;3.35;;;1.40;;
80852;SDS011;70270;43.434;28.338;2023-08-07T09:30:02;4.05;;;1.60;;
80852;SDS011;70270;43.434;28.338;2023-08-07T09:32:47;2.95;;;1.52;;
80852;SDS011;70270;43.434;28.338;2023-08-07T09:35:33;2.63;;;1.80;;
80852;SDS011;70270;43.434;28.338;2023-08-07T09:38:22;1.92;;;1.40;;
80852;SDS011;70270;43.434;28.338;2023-08-07T09:41:11;4.13;;;2.03;;
80852;SDS011;70270;43.434;28.338;2023-08-07T09:43:56;2.15;;;1.40;;
80852;SDS011;70270;43.434;28.338;2023-08-07T09:46:45;2.08;;;1.50;;
80852;SDS011;70270;43.434;28.338;2023-08-07T09:49:33;2.10;;;1.75;;
80852;SDS011;70270;43.434;28.338;2023-08-07T09:52:18;3.15;;;1.73;;
80852;SDS011;70270;43.434;28.338;2023-08-07T09:55:02;3.58;;;1.60;;
80852;SDS011;70270;43.434;28.338;2023-08-07T09:57:49;2.38;;;1.70;;
80852;SDS011;70270;43.434;28.338;2023-08-07T10:00:36;1.85;;;1.48;;
80852;SDS011;70270;43.434;28.338;2023-08-07T10:03:21;2.75;;;1.70;;
80852;SDS011;70270;43.434;28.338;2023-08-07T10:06:09;4.10;;;2.10;;
80852;SDS011;70270;43.434;28.338;2023-08-07T10:08:54;2.40;;;1.60;;
80852;SDS011;70270;43.434;28.338;2023-08-07T10:11:44;2.72;;;1.52;;
80852;SDS011;70270;43.434;28.338;2023-08-07T10:14:29;2.00;;;1.60;;
80852;SDS011;70270;43.434;28.338;2023-08-07T10:19:59;4.35;;;1.73;;
80852;SDS011;70270;43.434;28.338;2023-08-07T10:22:44;2.17;;;1.70;;
80852;SDS011;70270;43.434;28.338;2023-08-07T10:25:32;3.58;;;1.55;;
80852;SDS011;70270;43.434;28.338;2023-08-07T10:28:19;2.85;;;1.60;;
80852;SDS011;70270;43.434;28.338;2023-08-07T10:31:09;2.80;;;1.83;;
80852;SDS011;70270;43.434;28.338;2023-08-07T10:33:56;1.77;;;1.50;;
80852;SDS011;70270;43.434;28.338;2023-08-07T10:36:41;2.85;;;1.60;;
80852;SDS011;70270;43.434;28.338;2023-08-07T10:39:26;3.67;;;1.70;;
80852;SDS011;70270;43.434;28.338;2023-08-07T10:42:11;2.15;;;1.55;;
80852;SDS011;70270;43.434;28.338;2023-08-07T10:45:00;2.33;;;1.42;;
80852;SDS011;70270;43.434;28.338;2023-08-07T10:50:50;1.95;;;1.40;;
80852;SDS011;70270;43.434;28.338;2023-08-07T10:54:07;3.30;;;1.73;;
80852;SDS011;70270;43.434;28.338;2023-08-07T10:56:58;2.33;;;1.40;;
80852;SDS011;70270;43.434;28.338;2023-08-07T11:02:41;4.13;;;1.55;;
80852;SDS011;70270;43.434;28.338;2023-08-07T11:05:30;3.60;;;1.98;;
80852;SDS011;70270;43.434;28.338;2023-08-07T11:08:15;3.55;;;1.38;;
80852;SDS011;70270;43.434;28.338;2023-08-07T11:11:03;2.95;;;1.42;;
80852;SDS011;70270;43.434;28.338;2023-08-07T11:13:50;2.40;;;1.40;;
80852;SDS011;70270;43.434;28.338;2023-08-07T11:16:37;3.05;;;1.58;;
80852;SDS011;70270;43.434;28.338;2023-08-07T11:19:23;3.17;;;1.70;;
80852;SDS011;70270;43.434;28.338;2023-08-07T11:22:11;3.33;;;1.77;;
80852;SDS011;70270;43.434;28.338;2023-08-07T11:24:56;3.03;;;1.42;;
80852;SDS011;70270;43.434;28.338;2023-08-07T11:27:43;2.72;;;1.80;;
80852;SDS011;70270;43.434;28.338;2023-08-07T11:30:28;2.85;;;1.77;;
80852;SDS011;70270;43.434;28.338;2023-08-07T11:33:12;5.10;;;1.65;;
80852;SDS011;70270;43.434;28.338;2023-08-07T11:35:57;3.67;;;1.60;;
80852;SDS011;70270;43.434;28.338;2023-08-07T11:38:46;3.13;;;1.70;;
80852;SDS011;70270;43.434;28.338;2023-08-07T11:41:31;2.72;;;1.55;;
80852;SDS011;70270;43.434;28.338;2023-08-07T11:44:18;2.65;;;1.73;;
80852;SDS011;70270;43.434;28.338;2023-08-07T11:47:03;3.65;;;2.28;;
80852;SDS011;70270;43.434;28.338;2023-08-07T11:49:48;3.90;;;1.77;;
80852;SDS011;70270;43.434;28.338;2023-08-07T11:52:33;4.15;;;1.95;;
80852;SDS011;70270;43.434;28.338;2023-08-07T11:55:17;3.63;;;1.80;;
80852;SDS011;70270;43.434;28.338;2023-08-07T11:58:05;3.90;;;1.80;;
80852;SDS011;70270;43.434;28.338;2023-08-07T12:00:52;2.35;;;1.50;;
80852;SDS011;70270;43.434;28.338;2023-08-07T12:03:37;3.08;;;1.60;;
80852;SDS011;70270;43.434;28.338;2023-08-07T12:06:23;3.67;;;1.80;;
80852;SDS011;70270;43.434;28.338;2023-08-07T12:09:11;3.47;;;1.85;;
80852;SDS011;70270;43.434;28.338;2023-08-07T12:11:59;4.93;;;2.17;;
80852;SDS011;70270;43.434;28.338;2023-08-07T12:14:45;2.75;;;1.83;;
80852;SDS011;70270;43.434;28.338;2023-08-07T12:17:32;4.53;;;1.92;;
80852;SDS011;70270;43.434;28.338;2023-08-07T12:20:17;3.22;;;1.80;;
80852;SDS011;70270;43.434;28.338;2023-08-07T12:23:02;2.65;;;1.77;;
80852;SDS011;70270;43.434;28.338;2023-08-07T12:25:49;3.20;;;1.60;;
80852;SDS011;70270;43.434;28.338;2023-08-07T12:28:34;4.95;;;3.38;;
80852;SDS011;70270;43.434;28.338;2023-08-07T12:31:20;2.25;;;1.85;;
80852;SDS011;70270;43.434;28.338;2023-08-07T12:34:07;2.40;;;1.90;;
80852;SDS011;70270;43.434;28.338;2023-08-07T12:36:53;2.72;;;1.70;;
80852;SDS011;70270;43.434;28.338;2023-08-07T12:39:38;2.42;;;1.50;;
80852;SDS011;70270;43.434;28.338;2023-08-07T12:42:23;2.30;;;1.70;;
80852;SDS011;70270;43.434;28.338;2023-08-07T12:45:10;3.10;;;1.90;;
80852;SDS011;70270;43.434;28.338;2023-08-07T12:47:54;3.40;;;2.00;;
80852;SDS011;70270;43.434;28.338;2023-08-07T12:50:40;3.75;;;1.80;;
80852;SDS011;70270;43.434;28.338;2023-08-07T12:53:24;2.80;;;1.70;;
80852;SDS011;70270;43.434;28.338;2023-08-07T12:56:09;4.47;;;2.08;;
80852;SDS011;70270;43.434;28.338;2023-08-07T12:58:56;3.20;;;1.80;;
80852;SDS011;70270;43.434;28.338;2023-08-07T13:01:40;2.67;;;1.80;;
80852;SDS011;70270;43.434;28.338;2023-08-07T13:04:25;3.33;;;1.77;;
80852;SDS011;70270;43.434;28.338;2023-08-07T13:07:09;2.78;;;1.90;;
80852;SDS011;70270;43.434;28.338;2023-08-07T13:09:54;2.92;;;1.63;;
80852;SDS011;70270;43.434;28.338;2023-08-07T13:12:40;2.63;;;1.90;;
80852;SDS011;70270;43.434;28.338;2023-08-07T13:15:26;3.38;;;1.90;;
80852;SDS011;70270;43.434;28.338;2023-08-07T13:18:10;4.45;;;2.00;;
80852;SDS011;70270;43.434;28.338;2023-08-07T13:20:55;3.15;;;1.77;;
80852;SDS011;70270;43.434;28.338;2023-08-07T13:23:40;2.78;;;1.83;;
80852;SDS011;70270;43.434;28.338;2023-08-07T13:26:29;2.83;;;1.60;;
80852;SDS011;70270;43.434;28.338;2023-08-07T13:29:14;3.05;;;1.70;;
80852;SDS011;70270;43.434;28.338;2023-08-07T13:31:59;2.55;;;1.75;;
80852;SDS011;70270;43.434;28.338;2023-08-07T13:34:43;3.25;;;2.08;;
80852;SDS011;70270;43.434;28.338;2023-08-07T13:37:29;4.05;;;1.80;;
80852;SDS011;70270;43.434;28.338;2023-08-07T13:40:14;3.70;;;1.80;;
80852;SDS011;70270;43.434;28.338;2023-08-07T13:42:58;4.15;;;1.70;;
80852;SDS011;70270;43.434;28.338;2023-08-07T13:45:46;4.47;;;1.83;;
80852;SDS011;70270;43.434;28.338;2023-08-07T13:48:31;2.00;;;1.50;;
80852;SDS011;70270;43.434;28.338;2023-08-07T13:51:19;3.78;;;1.60;;
80852;SDS011;70270;43.434;28.338;2023-08-07T13:54:07;2.20;;;1.52;;
80852;SDS011;70270;43.434;28.338;2023-08-07T13:56:52;4.25;;;1.83;;
80852;SDS011;70270;43.434;28.338;2023-08-07T13:59:37;3.00;;;1.90;;
80852;SDS011;70270;43.434;28.338;2023-08-07T14:02:21;2.35;;;1.77;;
80852;SDS011;70270;43.434;28.338;2023-08-07T14:05:07;3.60;;;1.80;;
80852;SDS011;70270;43.434;28.338;2023-08-07T14:07:52;2.15;;;1.70;;
80852;SDS011;70270;43.434;28.338;2023-08-07T14:10:37;2.90;;;1.70;;
80852;SDS011;70270;43.434;28.338;2023-08-07T14:13:24;4.30;;;1.75;;
80852;SDS011;70270;43.434;28.338;2023-08-07T14:16:10;2.75;;;1.75;;
80852;SDS011;70270;43.434;28.338;2023-08-07T14:18:58;3.53;;;1.75;;
80852;SDS011;70270;43.434;28.338;2023-08-07T14:21:46;3.20;;;1.67;;
80852;SDS011;70270;43.434;28.338;2023-08-07T14:24:30;2.85;;;1.50;;
80852;SDS011;70270;43.434;28.338;2023-08-07T14:27:20;2.17;;;1.60;;
80852;SDS011;70270;43.434;28.338;2023-08-07T14:30:05;3.00;;;1.58;;
80852;SDS011;70270;43.434;28.338;2023-08-07T14:32:53;2.47;;;1.60;;
80852;SDS011;70270;43.434;28.338;2023-08-07T14:35:44;2.95;;;1.67;;
80852;SDS011;70270;43.434;28.338;2023-08-07T14:38:29;2.78;;;1.75;;
80852;SDS011;70270;43.434;28.338;2023-08-07T14:41:17;4.95;;;1.70;;
80852;SDS011;70270;43.434;28.338;2023-08-07T14:44:05;2.00;;;1.60;;
80852;SDS011;70270;43.434;28.338;2023-08-07T14:46:51;2.50;;;1.63;;
80852;SDS011;70270;43.434;28.338;2023-08-07T14:49:37;3.63;;;1.50;;
80852;SDS011;70270;43.434;28.338;2023-08-07T14:52:23;2.97;;;1.60;;
80852;SDS011;70270;43.434;28.338;2023-08-07T14:55:15;2.38;;;1.70;;
80852;SDS011;70270;43.434;28.338;2023-08-07T14:58:01;2.47;;;1.50;;
80852;SDS011;70270;43.434;28.338;2023-08-07T15:00:51;2.30;;;1.70;;
80852;SDS011;70270;43.434;28.338;2023-08-07T15:03:45;1.90;;;1.50;;
80852;SDS011;70270;43.434;28.338;2023-08-07T15:06:30;3.63;;;1.85;;
80852;SDS011;70270;43.434;28.338;2023-08-07T15:09:22;2.65;;;1.75;;
80852;SDS011;70270;43.434;28.338;2023-08-07T15:12:10;2.80;;;1.85;;
80852;SDS011;70270;43.434;28.338;2023-08-07T15:14:55;2.08;;;1.58;;
80852;SDS011;70270;43.434;28.338;2023-08-07T15:17:44;2.25;;;1.50;;
80852;SDS011;70270;43.434;28.338;2023-08-07T15:20:42;3.30;;;2.13;;
80852;SDS011;70270;43.434;28.338;2023-08-07T15:26:14;3.35;;;2.17;;
80852;SDS011;70270;43.434;28.338;2023-08-07T15:29:04;1.83;;;1.50;;
80852;SDS011;70270;43.434;28.338;2023-08-07T15:31:52;3.22;;;2.20;;
80852;SDS011;70270;43.434;28.338;2023-08-07T15:34:37;5.07;;;1.60;;
80852;SDS011;70270;43.434;28.338;2023-08-07T15:37:24;3.40;;;1.70;;
80852;SDS011;70270;43.434;28.338;2023-08-07T15:40:09;3.47;;;2.00;;
80852;SDS011;70270;43.434;28.338;2023-08-07T15:42:57;2.92;;;1.85;;
80852;SDS011;70270;43.434;28.338;2023-08-07T15:48:32;3.47;;;2.03;;
80852;SDS011;70270;43.434;28.338;2023-08-07T15:51:17;2.47;;;1.70;;
80852;SDS011;70270;43.434;28.338;2023-08-07T15:54:03;2.75;;;1.80;;
80852;SDS011;70270;43.434;28.338;2023-08-07T15:56:48;4.00;;;2.00;;
80852;SDS011;70270;43.434;28.338;2023-08-07T15:59:34;3.50;;;1.80;;
80852;SDS011;70270;43.434;28.338;2023-08-07T16:02:19;3.72;;;1.70;;
80852;SDS011;70270;43.434;28.338;2023-08-07T16:05:06;3.05;;;1.60;;
80852;SDS011;70270;43.434;28.338;2023-08-07T16:07:53;2.20;;;1.58;;
80852;SDS011;70270;43.434;28.338;2023-08-07T16:10:38;1.95;;;1.58;;
80852;SDS011;70270;43.434;28.338;2023-08-07T16:13:23;5.75;;;2.40;;
80852;SDS011;70270;43.434;28.338;2023-08-07T16:16:11;3.72;;;1.70;;
80852;SDS011;70270;43.434;28.338;2023-08-07T16:18:56;1.85;;;1.40;;
80852;SDS011;70270;43.434;28.338;2023-08-07T16:21:44;1.98;;;1.50;;
80852;SDS011;70270;43.434;28.338;2023-08-07T16:24:32;5.72;;;1.73;;
80852;SDS011;70270;43.434;28.338;2023-08-07T16:27:17;2.63;;;1.50;;
80852;SDS011;70270;43.434;28.338;2023-08-07T16:30:05;2.22;;;1.55;;
80852;SDS011;70270;43.434;28.338;2023-08-07T16:32:50;2.88;;;1.80;;
80852;SDS011;70270;43.434;28.338;2023-08-07T16:35:35;3.17;;;1.70;;
80852;SDS011;70270;43.434;28.338;2023-08-07T16:38:20;3.22;;;1.77;;
80852;SDS011;70270;43.434;28.338;2023-08-07T16:41:05;2.50;;;1.70;;